LFRG METAR and TAF | Updated Today

LFRG METAR

Deauville-Saint-Gatien Airport

Observation time: 32 min. ago

LFRG 052000Z AUTO 02006KT CAVOK 04/03 Q1043 NOSIG

Need help? Read our tutorial on how to read METARs or read the parsed version below.

Deauville-Saint-Gatien Airport (LFRG) METAR

  • Weather conditions on Sun, 05 Feb 2023 20:00:00 +0000 (32 min. ago):
  • Present conditions: Dry
  • Clouds: Clear skies
  • Visibility: Greater than 10 km
  • Wind: 20 degrees at 6 knots
  • Temperature: 4 celsius
  • Dew point: 3 celsius
  • Pressure: 1043 millibars
  • Remarks: None


Useful to know...

LFRG TAF

Deauville-Saint-Gatien Airport

TAF LFRG 051400Z 0515/0524 03010KT 9999 SCT025
Observation time: 6:32 hr. ago
Need help? Read our tutorial on how to read TAFs or read the parsed version below.

Parsed version of TAF for Deauville-Saint-Gatien Airport (LFRG)

  • From 05 February at 15:00 UTC, to day 05 of the month at 24:00 UTC
  • Clouds: Scattered at 762 meters
  • Visibility: Greater than 10 km
  • Wind: 30 degrees at 10